Maple Creek, Canada
Current Conditions -  °F | °C
As of 3:00 AM on Wednesday 22 Oct 2014 (Local Time) from CYXH Reporting Station
Broken Clouds Broken Clouds  
Wind Chill: 42°   Ceiling: 9500
Heat Index: 46°   Visibility: 9mi
Dew Point: 43°   Wind: 9mph
Humidity: 87%   Direction: 240°WSW
Pressure: 29.78"   Gusts: NA
Location:  49.91°N, 109.48°W
Report Text: CYXH 220900Z AUTO 24008KT 9SM BKN095 08/06 A2978 RMK SLP091
Loading
Personal Weather Stations






























Interactive Weather Map
Tropical Storm Tracking
New forecast layout! Learn more

10-Day Weather Forecast

Advertisements
Track Severe Weather on mobile